Aeroporto :
LOGIN :

Iscrizione | Disclaimer

   EN    FR    IT 

 










Sommario :    VFR   VFR Marginale   IFR   IFR Intensivo   IFR Molto Intensivo
Visibilità : 
Base nubi : 
>= 8 km
>= 3000ft
5 / 8 km
1000 / 3000 ft
1500m / 5 km
500 / 1000 ft
800 / 1500m
200 / 500 ft
< 800m
< 200 ft
Simboli :   Temporali  Nebbia  Neve Forte  Precipitazioni Forti  Vento > 20 kt
SIGMETs :   Varie  Temporali  Ghiacco  Turbolenza  Onda orograficha  Ceneri Vulcaniche






- Altitudine del aeroporto : 158 ft
- Codice IATA : QAR


EHDL - Deelen Airbase

ULTIMO METAR :
  • 231955Z AUTO 28011KT 200V340 9999 FEW027 SCT032 BKN042 06/03 Q1019 BLU

METARs OBSOLETI :
  • 231925Z AUTO 28011KT 230V350 9999 FEW034 BKN370 06/03 Q1018 BLU
  • 231855Z AUTO 28010KT 230V340 9999 SCT380 06/03 Q1017 BLU
  • 231825Z AUTO 30012KT 230V360 9999 FEW057 SCT380 07/03 Q1016 BLU
  • 231755Z AUTO 30010KT 260V020 9999 FEW017 SCT021 BKN025 07/03 Q1015 WHT
  • 231725Z AUTO 30014KT 240V360 9999 FEW022 SCT035 BKN040 07/04 Q1014 BLU

Previsioni scadute.



MetMap, La meteo Aeronautica in un colpo d'occhio ! - Copyright ORBIFLY Dicembre 2007 - Disclaimer

ORBIFLY MET'MAP TEAM :

Programmazione e sviluppo : Alexandra Zaïnal
Concezione : Baudouin d'Aumeries
Aiuto per la programmazione : Marc-Olivier Méhu
Supporto tecnico e logistico : Manuel Goepfert
Aiuto per la traduzione : Arnaldo La Scala

Contatto : metmap@orbifly.com




FONTI E CREDITI :

   NOAA